sensor_id;sensor_type;location;lat;lon;timestamp;P1;durP1;ratioP1;P2;durP2;ratioP2
20417;SDS011;10368;51.436;6.774;2023-06-26T00:00:05;7.55;;;6.82;;
20417;SDS011;10368;51.436;6.774;2023-06-26T00:02:33;8.60;;;7.72;;
20417;SDS011;10368;51.436;6.774;2023-06-26T00:05:00;8.18;;;7.50;;
20417;SDS011;10368;51.436;6.774;2023-06-26T00:07:29;8.10;;;7.43;;
20417;SDS011;10368;51.436;6.774;2023-06-26T00:09:56;8.52;;;7.60;;
20417;SDS011;10368;51.436;6.774;2023-06-26T00:12:24;7.28;;;6.75;;
20417;SDS011;10368;51.436;6.774;2023-06-26T00:14:51;7.93;;;7.13;;
20417;SDS011;10368;51.436;6.774;2023-06-26T00:17:19;9.30;;;6.60;;
20417;SDS011;10368;51.436;6.774;2023-06-26T00:19:45;8.20;;;6.88;;
20417;SDS011;10368;51.436;6.774;2023-06-26T00:22:12;8.25;;;7.32;;
20417;SDS011;10368;51.436;6.774;2023-06-26T00:24:39;8.30;;;7.55;;
20417;SDS011;10368;51.436;6.774;2023-06-26T00:27:06;6.95;;;6.20;;
20417;SDS011;10368;51.436;6.774;2023-06-26T00:29:33;8.75;;;7.88;;
20417;SDS011;10368;51.436;6.774;2023-06-26T00:32:01;9.13;;;8.23;;
20417;SDS011;10368;51.436;6.774;2023-06-26T00:34:28;8.38;;;7.57;;
20417;SDS011;10368;51.436;6.774;2023-06-26T00:36:55;8.10;;;7.40;;
20417;SDS011;10368;51.436;6.774;2023-06-26T00:39:22;7.50;;;6.90;;
20417;SDS011;10368;51.436;6.774;2023-06-26T00:41:52;8.45;;;7.63;;
20417;SDS011;10368;51.436;6.774;2023-06-26T00:44:20;7.78;;;7.15;;
20417;SDS011;10368;51.436;6.774;2023-06-26T00:46:48;8.35;;;7.65;;
20417;SDS011;10368;51.436;6.774;2023-06-26T00:49:15;8.07;;;7.38;;
20417;SDS011;10368;51.436;6.774;2023-06-26T00:51:42;7.72;;;7.13;;
20417;SDS011;10368;51.436;6.774;2023-06-26T00:54:10;10.80;;;7.72;;
20417;SDS011;10368;51.436;6.774;2023-06-26T00:56:37;8.82;;;7.97;;
20417;SDS011;10368;51.436;6.774;2023-06-26T00:59:05;8.63;;;7.90;;
20417;SDS011;10368;51.436;6.774;2023-06-26T01:01:32;8.18;;;7.43;;
20417;SDS011;10368;51.436;6.774;2023-06-26T01:03:58;8.20;;;7.55;;
20417;SDS011;10368;51.436;6.774;2023-06-26T01:06:26;7.70;;;7.10;;
20417;SDS011;10368;51.436;6.774;2023-06-26T01:08:58;9.18;;;8.30;;
20417;SDS011;10368;51.436;6.774;2023-06-26T01:11:25;8.25;;;7.55;;
20417;SDS011;10368;51.436;6.774;2023-06-26T01:13:52;12.30;;;8.43;;
20417;SDS011;10368;51.436;6.774;2023-06-26T01:16:22;9.15;;;8.25;;
20417;SDS011;10368;51.436;6.774;2023-06-26T01:18:50;8.55;;;7.75;;
20417;SDS011;10368;51.436;6.774;2023-06-26T01:21:17;12.48;;;8.30;;
20417;SDS011;10368;51.436;6.774;2023-06-26T01:26:49;8.82;;;7.95;;
20417;SDS011;10368;51.436;6.774;2023-06-26T01:29:17;7.93;;;7.18;;
20417;SDS011;10368;51.436;6.774;2023-06-26T01:31:46;8.90;;;7.60;;
20417;SDS011;10368;51.436;6.774;2023-06-26T01:34:16;8.38;;;7.70;;
20417;SDS011;10368;51.436;6.774;2023-06-26T01:36:44;8.82;;;8.02;;
20417;SDS011;10368;51.436;6.774;2023-06-26T01:39:14;8.43;;;7.63;;
20417;SDS011;10368;51.436;6.774;2023-06-26T01:41:42;9.25;;;7.93;;
20417;SDS011;10368;51.436;6.774;2023-06-26T01:44:52;8.13;;;7.38;;
20417;SDS011;10368;51.436;6.774;2023-06-26T01:47:02;8.65;;;7.95;;
20417;SDS011;10368;51.436;6.774;2023-06-26T01:52:25;8.85;;;7.95;;
20417;SDS011;10368;51.436;6.774;2023-06-26T01:57:38;8.90;;;8.18;;
20417;SDS011;10368;51.436;6.774;2023-06-26T02:00:06;8.13;;;7.20;;
20417;SDS011;10368;51.436;6.774;2023-06-26T02:02:36;9.48;;;8.20;;
20417;SDS011;10368;51.436;6.774;2023-06-26T02:05:03;7.85;;;7.22;;
20417;SDS011;10368;51.436;6.774;2023-06-26T02:07:30;11.25;;;8.85;;
20417;SDS011;10368;51.436;6.774;2023-06-26T02:09:57;8.65;;;7.88;;
20417;SDS011;10368;51.436;6.774;2023-06-26T02:12:24;8.93;;;8.10;;
20417;SDS011;10368;51.436;6.774;2023-06-26T02:14:51;8.02;;;7.32;;
20417;SDS011;10368;51.436;6.774;2023-06-26T02:17:17;9.10;;;8.35;;
20417;SDS011;10368;51.436;6.774;2023-06-26T02:19:44;8.18;;;7.47;;
20417;SDS011;10368;51.436;6.774;2023-06-26T02:22:14;10.30;;;8.05;;
20417;SDS011;10368;51.436;6.774;2023-06-26T02:24:42;9.20;;;7.90;;
20417;SDS011;10368;51.436;6.774;2023-06-26T02:27:09;10.07;;;9.07;;
20417;SDS011;10368;51.436;6.774;2023-06-26T02:29:36;9.13;;;8.32;;
20417;SDS011;10368;51.436;6.774;2023-06-26T02:32:03;9.40;;;8.60;;
20417;SDS011;10368;51.436;6.774;2023-06-26T02:34:30;11.85;;;8.65;;
20417;SDS011;10368;51.436;6.774;2023-06-26T02:36:57;9.75;;;8.93;;
20417;SDS011;10368;51.436;6.774;2023-06-26T02:39:24;8.80;;;8.00;;
20417;SDS011;10368;51.436;6.774;2023-06-26T02:41:52;8.55;;;7.75;;
20417;SDS011;10368;51.436;6.774;2023-06-26T02:44:19;8.80;;;8.00;;
20417;SDS011;10368;51.436;6.774;2023-06-26T02:46:47;10.15;;;8.18;;
20417;SDS011;10368;51.436;6.774;2023-06-26T02:49:14;11.05;;;8.13;;
20417;SDS011;10368;51.436;6.774;2023-06-26T02:51:41;9.07;;;8.18;;
20417;SDS011;10368;51.436;6.774;2023-06-26T02:54:07;8.98;;;8.07;;
20417;SDS011;10368;51.436;6.774;2023-06-26T02:56:34;9.10;;;8.23;;
20417;SDS011;10368;51.436;6.774;2023-06-26T02:59:10;10.30;;;8.40;;
20417;SDS011;10368;51.436;6.774;2023-06-26T03:01:36;8.77;;;7.97;;
20417;SDS011;10368;51.436;6.774;2023-06-26T03:04:04;9.68;;;8.77;;
20417;SDS011;10368;51.436;6.774;2023-06-26T03:06:31;10.32;;;9.02;;
20417;SDS011;10368;51.436;6.774;2023-06-26T03:08:57;11.73;;;8.68;;
20417;SDS011;10368;51.436;6.774;2023-06-26T03:11:24;10.10;;;9.20;;
20417;SDS011;10368;51.436;6.774;2023-06-26T03:13:51;11.05;;;8.80;;
20417;SDS011;10368;51.436;6.774;2023-06-26T03:16:18;9.48;;;8.48;;
20417;SDS011;10368;51.436;6.774;2023-06-26T03:18:45;9.32;;;8.45;;
20417;SDS011;10368;51.436;6.774;2023-06-26T03:21:11;10.68;;;9.68;;
20417;SDS011;10368;51.436;6.774;2023-06-26T03:23:38;12.05;;;9.40;;
20417;SDS011;10368;51.436;6.774;2023-06-26T03:26:05;14.48;;;11.65;;
20417;SDS011;10368;51.436;6.774;2023-06-26T03:28:32;12.70;;;10.43;;
20417;SDS011;10368;51.436;6.774;2023-06-26T03:30:59;17.50;;;11.90;;
20417;SDS011;10368;51.436;6.774;2023-06-26T03:33:26;20.05;;;12.75;;
20417;SDS011;10368;51.436;6.774;2023-06-26T03:35:52;21.15;;;13.05;;
20417;SDS011;10368;51.436;6.774;2023-06-26T03:38:19;20.48;;;13.10;;
20417;SDS011;10368;51.436;6.774;2023-06-26T03:40:47;16.65;;;12.90;;
20417;SDS011;10368;51.436;6.774;2023-06-26T03:43:14;19.23;;;14.38;;
20417;SDS011;10368;51.436;6.774;2023-06-26T03:45:41;22.33;;;12.73;;
20417;SDS011;10368;51.436;6.774;2023-06-26T03:48:08;19.70;;;13.15;;
20417;SDS011;10368;51.436;6.774;2023-06-26T03:50:35;15.18;;;10.57;;
20417;SDS011;10368;51.436;6.774;2023-06-26T03:53:02;10.88;;;8.68;;
20417;SDS011;10368;51.436;6.774;2023-06-26T03:55:29;12.57;;;9.27;;
20417;SDS011;10368;51.436;6.774;2023-06-26T03:57:55;10.10;;;9.07;;
20417;SDS011;10368;51.436;6.774;2023-06-26T04:00:22;11.20;;;9.27;;
20417;SDS011;10368;51.436;6.774;2023-06-26T04:02:49;13.63;;;9.02;;
20417;SDS011;10368;51.436;6.774;2023-06-26T04:05:17;12.02;;;8.15;;
20417;SDS011;10368;51.436;6.774;2023-06-26T04:07:49;10.55;;;7.72;;
20417;SDS011;10368;51.436;6.774;2023-06-26T04:10:17;7.28;;;6.57;;
20417;SDS011;10368;51.436;6.774;2023-06-26T04:12:44;7.82;;;6.65;;
20417;SDS011;10368;51.436;6.774;2023-06-26T04:15:11;6.82;;;6.13;;
20417;SDS011;10368;51.436;6.774;2023-06-26T04:17:37;8.18;;;6.57;;
20417;SDS011;10368;51.436;6.774;2023-06-26T04:20:04;9.98;;;6.88;;
20417;SDS011;10368;51.436;6.774;2023-06-26T04:22:33;7.07;;;5.65;;
20417;SDS011;10368;51.436;6.774;2023-06-26T04:25:03;7.78;;;6.80;;
20417;SDS011;10368;51.436;6.774;2023-06-26T04:27:30;8.35;;;6.47;;
20417;SDS011;10368;51.436;6.774;2023-06-26T04:30:00;8.30;;;6.88;;
20417;SDS011;10368;51.436;6.774;2023-06-26T04:32:27;11.65;;;6.20;;
20417;SDS011;10368;51.436;6.774;2023-06-26T04:34:54;8.57;;;6.90;;
20417;SDS011;10368;51.436;6.774;2023-06-26T04:37:21;9.50;;;6.88;;
20417;SDS011;10368;51.436;6.774;2023-06-26T04:39:48;7.13;;;6.45;;
20417;SDS011;10368;51.436;6.774;2023-06-26T04:42:15;14.25;;;8.05;;
20417;SDS011;10368;51.436;6.774;2023-06-26T04:44:42;16.13;;;8.45;;
20417;SDS011;10368;51.436;6.774;2023-06-26T04:47:09;19.55;;;13.32;;
20417;SDS011;10368;51.436;6.774;2023-06-26T04:49:43;17.73;;;12.73;;
20417;SDS011;10368;51.436;6.774;2023-06-26T04:52:12;12.50;;;10.80;;
20417;SDS011;10368;51.436;6.774;2023-06-26T04:54:39;13.05;;;9.82;;
20417;SDS011;10368;51.436;6.774;2023-06-26T04:57:08;10.88;;;9.35;;
20417;SDS011;10368;51.436;6.774;2023-06-26T04:59:36;10.90;;;9.70;;
20417;SDS011;10368;51.436;6.774;2023-06-26T05:02:02;9.00;;;8.13;;
20417;SDS011;10368;51.436;6.774;2023-06-26T05:04:31;11.60;;;9.10;;
20417;SDS011;10368;51.436;6.774;2023-06-26T05:06:58;9.40;;;8.50;;
20417;SDS011;10368;51.436;6.774;2023-06-26T05:09:27;9.05;;;8.02;;
20417;SDS011;10368;51.436;6.774;2023-06-26T05:11:54;9.95;;;8.25;;
20417;SDS011;10368;51.436;6.774;2023-06-26T05:14:21;12.25;;;8.50;;
20417;SDS011;10368;51.436;6.774;2023-06-26T05:16:52;12.43;;;9.23;;
20417;SDS011;10368;51.436;6.774;2023-06-26T05:19:19;12.25;;;8.38;;
20417;SDS011;10368;51.436;6.774;2023-06-26T05:21:46;13.52;;;8.48;;
20417;SDS011;10368;51.436;6.774;2023-06-26T05:24:14;9.98;;;7.80;;
20417;SDS011;10368;51.436;6.774;2023-06-26T05:26:45;8.38;;;6.88;;
20417;SDS011;10368;51.436;6.774;2023-06-26T05:29:16;7.13;;;6.43;;
20417;SDS011;10368;51.436;6.774;2023-06-26T05:31:43;10.48;;;6.25;;
20417;SDS011;10368;51.436;6.774;2023-06-26T05:34:13;6.93;;;6.20;;
20417;SDS011;10368;51.436;6.774;2023-06-26T05:36:41;9.82;;;5.65;;
20417;SDS011;10368;51.436;6.774;2023-06-26T05:39:12;11.30;;;6.22;;
20417;SDS011;10368;51.436;6.774;2023-06-26T05:41:39;9.82;;;6.18;;
20417;SDS011;10368;51.436;6.774;2023-06-26T05:44:06;8.15;;;6.07;;
20417;SDS011;10368;51.436;6.774;2023-06-26T05:46:33;8.20;;;6.22;;
20417;SDS011;10368;51.436;6.774;2023-06-26T05:48:59;8.90;;;5.45;;
20417;SDS011;10368;51.436;6.774;2023-06-26T05:51:27;8.10;;;5.22;;
20417;SDS011;10368;51.436;6.774;2023-06-26T05:53:55;15.15;;;6.18;;
20417;SDS011;10368;51.436;6.774;2023-06-26T05:56:22;10.40;;;6.65;;
20417;SDS011;10368;51.436;6.774;2023-06-26T05:58:55;10.68;;;5.72;;
20417;SDS011;10368;51.436;6.774;2023-06-26T06:01:26;9.48;;;5.93;;
20417;SDS011;10368;51.436;6.774;2023-06-26T06:03:55;10.38;;;6.38;;
20417;SDS011;10368;51.436;6.774;2023-06-26T06:06:25;12.13;;;6.22;;
20417;SDS011;10368;51.436;6.774;2023-06-26T06:08:59;9.20;;;6.32;;
20417;SDS011;10368;51.436;6.774;2023-06-26T06:11:26;15.13;;;5.97;;
20417;SDS011;10368;51.436;6.774;2023-06-26T06:13:52;16.10;;;5.47;;
20417;SDS011;10368;51.436;6.774;2023-06-26T06:16:19;6.90;;;5.60;;
20417;SDS011;10368;51.436;6.774;2023-06-26T06:18:46;7.65;;;5.43;;
20417;SDS011;10368;51.436;6.774;2023-06-26T06:21:13;7.00;;;5.47;;
20417;SDS011;10368;51.436;6.774;2023-06-26T06:23:40;8.98;;;5.15;;
20417;SDS011;10368;51.436;6.774;2023-06-26T06:26:06;7.25;;;5.53;;
20417;SDS011;10368;51.436;6.774;2023-06-26T06:28:33;10.50;;;6.50;;
20417;SDS011;10368;51.436;6.774;2023-06-26T06:31:00;7.47;;;5.53;;
20417;SDS011;10368;51.436;6.774;2023-06-26T06:33:30;9.10;;;6.00;;
20417;SDS011;10368;51.436;6.774;2023-06-26T06:36:00;14.68;;;6.53;;
20417;SDS011;10368;51.436;6.774;2023-06-26T06:38:27;13.38;;;5.35;;
20417;SDS011;10368;51.436;6.774;2023-06-26T06:40:54;9.18;;;5.60;;
20417;SDS011;10368;51.436;6.774;2023-06-26T06:43:21;10.48;;;5.63;;
20417;SDS011;10368;51.436;6.774;2023-06-26T06:45:48;10.23;;;6.05;;
20417;SDS011;10368;51.436;6.774;2023-06-26T06:48:14;11.32;;;5.80;;
20417;SDS011;10368;51.436;6.774;2023-06-26T06:50:41;14.43;;;5.28;;
20417;SDS011;10368;51.436;6.774;2023-06-26T06:53:08;10.98;;;6.28;;
20417;SDS011;10368;51.436;6.774;2023-06-26T06:55:35;17.55;;;6.18;;
20417;SDS011;10368;51.436;6.774;2023-06-26T06:58:02;12.10;;;5.72;;
20417;SDS011;10368;51.436;6.774;2023-06-26T07:00:31;8.95;;;6.00;;
20417;SDS011;10368;51.436;6.774;2023-06-26T07:02:58;11.73;;;4.93;;
20417;SDS011;10368;51.436;6.774;2023-06-26T07:05:26;12.05;;;5.75;;
20417;SDS011;10368;51.436;6.774;2023-06-26T07:07:53;8.30;;;5.57;;
20417;SDS011;10368;51.436;6.774;2023-06-26T07:10:20;7.93;;;6.07;;
20417;SDS011;10368;51.436;6.774;2023-06-26T07:12:50;10.00;;;5.63;;
20417;SDS011;10368;51.436;6.774;2023-06-26T07:15:17;7.93;;;5.80;;
20417;SDS011;10368;51.436;6.774;2023-06-26T07:17:44;10.80;;;6.50;;
20417;SDS011;10368;51.436;6.774;2023-06-26T07:20:11;10.40;;;5.75;;
20417;SDS011;10368;51.436;6.774;2023-06-26T07:22:44;13.52;;;6.63;;
20417;SDS011;10368;51.436;6.774;2023-06-26T07:25:11;14.05;;;7.90;;
20417;SDS011;10368;51.436;6.774;2023-06-26T07:27:38;9.95;;;7.45;;
20417;SDS011;10368;51.436;6.774;2023-06-26T07:30:05;9.27;;;6.80;;
20417;SDS011;10368;51.436;6.774;2023-06-26T07:32:35;12.50;;;6.50;;
20417;SDS011;10368;51.436;6.774;2023-06-26T07:35:03;11.60;;;7.38;;
20417;SDS011;10368;51.436;6.774;2023-06-26T07:37:30;15.05;;;7.53;;
20417;SDS011;10368;51.436;6.774;2023-06-26T07:39:57;10.75;;;6.72;;
20417;SDS011;10368;51.436;6.774;2023-06-26T07:42:24;14.82;;;7.65;;
20417;SDS011;10368;51.436;6.774;2023-06-26T07:44:51;13.65;;;7.72;;
20417;SDS011;10368;51.436;6.774;2023-06-26T07:47:18;18.08;;;8.60;;
20417;SDS011;10368;51.436;6.774;2023-06-26T07:49:45;20.80;;;9.55;;
20417;SDS011;10368;51.436;6.774;2023-06-26T07:52:12;10.38;;;7.22;;
20417;SDS011;10368;51.436;6.774;2023-06-26T07:54:44;10.30;;;6.63;;
20417;SDS011;10368;51.436;6.774;2023-06-26T07:57:11;15.70;;;7.75;;
20417;SDS011;10368;51.436;6.774;2023-06-26T07:59:39;17.45;;;6.68;;
20417;SDS011;10368;51.436;6.774;2023-06-26T08:02:06;14.45;;;6.32;;
20417;SDS011;10368;51.436;6.774;2023-06-26T08:04:33;9.88;;;5.78;;
20417;SDS011;10368;51.436;6.774;2023-06-26T08:07:01;14.48;;;6.80;;
20417;SDS011;10368;51.436;6.774;2023-06-26T08:09:30;14.07;;;7.00;;
20417;SDS011;10368;51.436;6.774;2023-06-26T08:11:57;9.82;;;6.07;;
20417;SDS011;10368;51.436;6.774;2023-06-26T08:14:24;10.15;;;7.38;;
20417;SDS011;10368;51.436;6.774;2023-06-26T08:16:51;14.10;;;5.70;;
20417;SDS011;10368;51.436;6.774;2023-06-26T08:19:29;12.13;;;5.20;;
20417;SDS011;10368;51.436;6.774;2023-06-26T08:21:56;9.70;;;5.55;;
20417;SDS011;10368;51.436;6.774;2023-06-26T08:24:23;12.55;;;5.47;;
20417;SDS011;10368;51.436;6.774;2023-06-26T08:26:50;11.90;;;5.22;;
20417;SDS011;10368;51.436;6.774;2023-06-26T08:29:17;9.70;;;5.70;;
20417;SDS011;10368;51.436;6.774;2023-06-26T08:31:43;12.57;;;5.97;;
20417;SDS011;10368;51.436;6.774;2023-06-26T08:34:11;14.13;;;6.38;;
20417;SDS011;10368;51.436;6.774;2023-06-26T08:36:38;9.85;;;4.60;;
20417;SDS011;10368;51.436;6.774;2023-06-26T08:39:05;10.80;;;5.32;;
20417;SDS011;10368;51.436;6.774;2023-06-26T08:41:32;9.38;;;4.90;;
20417;SDS011;10368;51.436;6.774;2023-06-26T08:44:06;11.40;;;4.88;;
20417;SDS011;10368;51.436;6.774;2023-06-26T08:46:33;8.25;;;4.65;;
20417;SDS011;10368;51.436;6.774;2023-06-26T08:49:01;9.27;;;4.95;;
20417;SDS011;10368;51.436;6.774;2023-06-26T08:51:34;13.75;;;4.97;;
20417;SDS011;10368;51.436;6.774;2023-06-26T08:54:06;10.32;;;4.90;;
20417;SDS011;10368;51.436;6.774;2023-06-26T08:56:36;9.02;;;4.53;;
20417;SDS011;10368;51.436;6.774;2023-06-26T08:59:08;11.07;;;5.35;;
20417;SDS011;10368;51.436;6.774;2023-06-26T09:01:37;8.95;;;4.30;;
20417;SDS011;10368;51.436;6.774;2023-06-26T09:04:04;8.60;;;5.22;;
20417;SDS011;10368;51.436;6.774;2023-06-26T09:06:32;9.70;;;4.47;;
20417;SDS011;10368;51.436;6.774;2023-06-26T09:08:59;17.73;;;5.43;;
20417;SDS011;10368;51.436;6.774;2023-06-26T09:11:26;14.50;;;5.10;;
20417;SDS011;10368;51.436;6.774;2023-06-26T09:13:53;9.52;;;5.32;;
20417;SDS011;10368;51.436;6.774;2023-06-26T09:16:24;8.63;;;5.28;;
20417;SDS011;10368;51.436;6.774;2023-06-26T09:18:55;11.60;;;4.18;;
20417;SDS011;10368;51.436;6.774;2023-06-26T09:21:22;6.15;;;4.68;;
20417;SDS011;10368;51.436;6.774;2023-06-26T09:23:50;8.43;;;3.97;;
20417;SDS011;10368;51.436;6.774;2023-06-26T09:26:21;6.60;;;3.85;;
20417;SDS011;10368;51.436;6.774;2023-06-26T09:28:49;7.85;;;5.50;;
20417;SDS011;10368;51.436;6.774;2023-06-26T09:31:16;10.30;;;5.10;;
20417;SDS011;10368;51.436;6.774;2023-06-26T09:34:03;8.25;;;4.13;;
20417;SDS011;10368;51.436;6.774;2023-06-26T09:36:31;11.52;;;4.35;;
20417;SDS011;10368;51.436;6.774;2023-06-26T09:39:07;7.88;;;4.22;;
20417;SDS011;10368;51.436;6.774;2023-06-26T09:41:40;7.35;;;3.97;;
20417;SDS011;10368;51.436;6.774;2023-06-26T09:44:12;8.82;;;4.18;;
20417;SDS011;10368;51.436;6.774;2023-06-26T09:46:44;7.63;;;3.83;;
20417;SDS011;10368;51.436;6.774;2023-06-26T09:49:12;7.93;;;3.83;;
20417;SDS011;10368;51.436;6.774;2023-06-26T09:51:40;13.40;;;3.75;;
20417;SDS011;10368;51.436;6.774;2023-06-26T09:54:09;7.00;;;3.72;;
20417;SDS011;10368;51.436;6.774;2023-06-26T09:56:36;7.97;;;4.20;;
20417;SDS011;10368;51.436;6.774;2023-06-26T09:59:04;7.07;;;3.65;;
20417;SDS011;10368;51.436;6.774;2023-06-26T10:01:32;7.30;;;3.58;;
20417;SDS011;10368;51.436;6.774;2023-06-26T10:04:00;6.40;;;3.28;;
20417;SDS011;10368;51.436;6.774;2023-06-26T10:06:44;7.45;;;4.28;;
20417;SDS011;10368;51.436;6.774;2023-06-26T10:09:13;7.25;;;3.95;;
20417;SDS011;10368;51.436;6.774;2023-06-26T10:11:47;10.88;;;3.78;;
20417;SDS011;10368;51.436;6.774;2023-06-26T10:14:20;8.90;;;3.67;;
20417;SDS011;10368;51.436;6.774;2023-06-26T10:16:48;6.13;;;3.80;;
20417;SDS011;10368;51.436;6.774;2023-06-26T10:19:18;7.90;;;3.00;;
20417;SDS011;10368;51.436;6.774;2023-06-26T10:21:51;6.20;;;3.28;;
20417;SDS011;10368;51.436;6.774;2023-06-26T10:24:19;7.82;;;3.13;;
20417;SDS011;10368;51.436;6.774;2023-06-26T10:26:49;6.55;;;2.88;;
20417;SDS011;10368;51.436;6.774;2023-06-26T10:29:19;10.45;;;3.78;;
20417;SDS011;10368;51.436;6.774;2023-06-26T10:31:50;7.97;;;3.75;;
20417;SDS011;10368;51.436;6.774;2023-06-26T10:34:18;6.20;;;3.00;;
20417;SDS011;10368;51.436;6.774;2023-06-26T10:36:46;7.65;;;3.83;;
20417;SDS011;10368;51.436;6.774;2023-06-26T10:39:14;6.93;;;4.07;;
20417;SDS011;10368;51.436;6.774;2023-06-26T10:41:43;7.60;;;4.03;;
20417;SDS011;10368;51.436;6.774;2023-06-26T10:44:29;4.32;;;3.40;;
20417;SDS011;10368;51.436;6.774;2023-06-26T10:47:10;4.15;;;3.50;;
20417;SDS011;10368;51.436;6.774;2023-06-26T10:49:40;6.65;;;3.35;;
20417;SDS011;10368;51.436;6.774;2023-06-26T10:52:35;7.00;;;3.92;;
20417;SDS011;10368;51.436;6.774;2023-06-26T10:55:07;3.40;;;2.58;;
20417;SDS011;10368;51.436;6.774;2023-06-26T10:57:38;4.82;;;2.55;;
20417;SDS011;10368;51.436;6.774;2023-06-26T11:03:44;2.47;;;2.13;;
20417;SDS011;10368;51.436;6.774;2023-06-26T11:06:19;4.05;;;2.20;;
20417;SDS011;10368;51.436;6.774;2023-06-26T11:08:51;4.55;;;2.10;;
20417;SDS011;10368;51.436;6.774;2023-06-26T11:14:20;2.92;;;2.13;;
20417;SDS011;10368;51.436;6.774;2023-06-26T11:16:48;3.58;;;2.28;;
20417;SDS011;10368;51.436;6.774;2023-06-26T11:19:16;2.40;;;1.67;;
20417;SDS011;10368;51.436;6.774;2023-06-26T11:21:44;4.25;;;2.13;;
20417;SDS011;10368;51.436;6.774;2023-06-26T11:24:12;5.10;;;2.22;;
20417;SDS011;10368;51.436;6.774;2023-06-26T11:26:43;4.32;;;1.80;;
20417;SDS011;10368;51.436;6.774;2023-06-26T11:29:11;7.10;;;1.90;;
20417;SDS011;10368;51.436;6.774;2023-06-26T11:31:40;10.90;;;2.28;;
20417;SDS011;10368;51.436;6.774;2023-06-26T11:34:08;3.80;;;2.28;;
20417;SDS011;10368;51.436;6.774;2023-06-26T11:36:38;3.55;;;1.90;;
20417;SDS011;10368;51.436;6.774;2023-06-26T11:39:08;1.67;;;1.52;;
20417;SDS011;10368;51.436;6.774;2023-06-26T11:41:35;2.70;;;1.73;;
20417;SDS011;10368;51.436;6.774;2023-06-26T11:44:10;5.63;;;1.60;;
20417;SDS011;10368;51.436;6.774;2023-06-26T11:46:37;8.02;;;1.42;;
20417;SDS011;10368;51.436;6.774;2023-06-26T11:49:07;2.30;;;1.38;;
20417;SDS011;10368;51.436;6.774;2023-06-26T11:51:35;3.92;;;1.83;;
20417;SDS011;10368;51.436;6.774;2023-06-26T11:54:03;4.55;;;1.35;;
20417;SDS011;10368;51.436;6.774;2023-06-26T11:56:30;9.63;;;2.25;;
20417;SDS011;10368;51.436;6.774;2023-06-26T12:01:33;1.65;;;1.38;;
20417;SDS011;10368;51.436;6.774;2023-06-26T12:04:01;4.70;;;1.55;;
20417;SDS011;10368;51.436;6.774;2023-06-26T12:06:31;2.58;;;1.10;;
20417;SDS011;10368;51.436;6.774;2023-06-26T12:09:06;2.65;;;1.60;;
20417;SDS011;10368;51.436;6.774;2023-06-26T12:11:38;2.25;;;1.20;;
20417;SDS011;10368;51.436;6.774;2023-06-26T12:14:07;5.25;;;1.20;;
20417;SDS011;10368;51.436;6.774;2023-06-26T12:16:56;4.90;;;1.35;;
20417;SDS011;10368;51.436;6.774;2023-06-26T12:19:31;3.42;;;1.23;;
20417;SDS011;10368;51.436;6.774;2023-06-26T12:21:58;2.90;;;1.10;;
20417;SDS011;10368;51.436;6.774;2023-06-26T12:24:25;4.60;;;1.10;;
20417;SDS011;10368;51.436;6.774;2023-06-26T12:26:53;5.82;;;1.58;;
20417;SDS011;10368;51.436;6.774;2023-06-26T12:29:29;7.28;;;1.17;;
20417;SDS011;10368;51.436;6.774;2023-06-26T12:32:00;4.07;;;1.00;;
20417;SDS011;10368;51.436;6.774;2023-06-26T12:34:33;5.72;;;1.42;;
20417;SDS011;10368;51.436;6.774;2023-06-26T12:37:09;7.90;;;1.48;;
20417;SDS011;10368;51.436;6.774;2023-06-26T12:42:27;2.72;;;1.15;;
20417;SDS011;10368;51.436;6.774;2023-06-26T12:45:10;4.78;;;1.48;;
20417;SDS011;10368;51.436;6.774;2023-06-26T12:48:06;4.50;;;1.50;;
20417;SDS011;10368;51.436;6.774;2023-06-26T12:50:43;1.55;;;1.00;;
20417;SDS011;10368;51.436;6.774;2023-06-26T12:53:18;2.42;;;1.38;;
20417;SDS011;10368;51.436;6.774;2023-06-26T12:55:48;12.38;;;1.60;;
20417;SDS011;10368;51.436;6.774;2023-06-26T12:58:15;4.45;;;1.20;;
20417;SDS011;10368;51.436;6.774;2023-06-26T13:00:42;2.25;;;1.15;;
20417;SDS011;10368;51.436;6.774;2023-06-26T13:03:12;2.13;;;1.20;;
20417;SDS011;10368;51.436;6.774;2023-06-26T13:05:39;3.85;;;1.08;;
20417;SDS011;10368;51.436;6.774;2023-06-26T13:08:05;4.22;;;1.27;;
20417;SDS011;10368;51.436;6.774;2023-06-26T13:10:32;5.65;;;2.17;;
20417;SDS011;10368;51.436;6.774;2023-06-26T13:12:59;1.25;;;1.10;;
20417;SDS011;10368;51.436;6.774;2023-06-26T13:15:26;2.28;;;1.08;;
20417;SDS011;10368;51.436;6.774;2023-06-26T13:17:54;2.13;;;1.27;;
20417;SDS011;10368;51.436;6.774;2023-06-26T13:20:21;4.45;;;1.25;;
20417;SDS011;10368;51.436;6.774;2023-06-26T13:22:48;4.10;;;1.20;;
20417;SDS011;10368;51.436;6.774;2023-06-26T13:25:15;1.77;;;1.10;;
20417;SDS011;10368;51.436;6.774;2023-06-26T13:27:41;3.83;;;1.20;;
20417;SDS011;10368;51.436;6.774;2023-06-26T13:30:08;2.38;;;0.98;;
20417;SDS011;10368;51.436;6.774;2023-06-26T13:32:35;7.28;;;1.52;;
20417;SDS011;10368;51.436;6.774;2023-06-26T13:35:02;2.60;;;1.45;;
20417;SDS011;10368;51.436;6.774;2023-06-26T13:37:33;3.17;;;1.40;;
20417;SDS011;10368;51.436;6.774;2023-06-26T13:40:00;4.70;;;1.48;;
20417;SDS011;10368;51.436;6.774;2023-06-26T13:42:28;3.03;;;1.40;;
20417;SDS011;10368;51.436;6.774;2023-06-26T13:44:56;6.07;;;1.02;;
20417;SDS011;10368;51.436;6.774;2023-06-26T13:47:35;2.97;;;1.30;;
20417;SDS011;10368;51.436;6.774;2023-06-26T13:50:04;2.97;;;1.67;;
20417;SDS011;10368;51.436;6.774;2023-06-26T13:52:35;3.35;;;1.35;;
20417;SDS011;10368;51.436;6.774;2023-06-26T13:55:02;6.97;;;1.50;;
20417;SDS011;10368;51.436;6.774;2023-06-26T13:57:32;2.47;;;1.55;;
20417;SDS011;10368;51.436;6.774;2023-06-26T13:59:59;5.90;;;1.33;;
20417;SDS011;10368;51.436;6.774;2023-06-26T14:02:28;1.27;;;1.00;;
20417;SDS011;10368;51.436;6.774;2023-06-26T14:04:55;4.90;;;1.90;;
20417;SDS011;10368;51.436;6.774;2023-06-26T14:07:22;5.32;;;1.48;;
20417;SDS011;10368;51.436;6.774;2023-06-26T14:09:49;2.63;;;0.98;;
20417;SDS011;10368;51.436;6.774;2023-06-26T14:12:19;3.08;;;1.30;;
20417;SDS011;10368;51.436;6.774;2023-06-26T14:14:46;1.92;;;0.90;;
20417;SDS011;10368;51.436;6.774;2023-06-26T14:17:13;1.75;;;1.40;;
20417;SDS011;10368;51.436;6.774;2023-06-26T14:19:42;3.75;;;1.25;;
20417;SDS011;10368;51.436;6.774;2023-06-26T14:22:09;2.75;;;1.10;;
20417;SDS011;10368;51.436;6.774;2023-06-26T14:24:36;0.90;;;0.90;;
20417;SDS011;10368;51.436;6.774;2023-06-26T14:27:36;1.50;;;1.20;;
20417;SDS011;10368;51.436;6.774;2023-06-26T14:30:03;3.22;;;0.90;;
20417;SDS011;10368;51.436;6.774;2023-06-26T14:32:31;2.88;;;0.93;;
20417;SDS011;10368;51.436;6.774;2023-06-26T14:34:58;4.22;;;1.40;;
20417;SDS011;10368;51.436;6.774;2023-06-26T14:37:25;3.22;;;1.33;;
20417;SDS011;10368;51.436;6.774;2023-06-26T14:40:15;3.28;;;1.33;;
20417;SDS011;10368;51.436;6.774;2023-06-26T14:42:45;3.35;;;1.40;;
20417;SDS011;10368;51.436;6.774;2023-06-26T14:45:14;2.85;;;1.40;;
20417;SDS011;10368;51.436;6.774;2023-06-26T14:47:41;2.13;;;1.05;;
20417;SDS011;10368;51.436;6.774;2023-06-26T14:50:08;2.83;;;1.48;;
20417;SDS011;10368;51.436;6.774;2023-06-26T14:52:35;2.17;;;1.00;;
20417;SDS011;10368;51.436;6.774;2023-06-26T14:55:02;2.00;;;1.10;;
20417;SDS011;10368;51.436;6.774;2023-06-26T14:57:33;6.45;;;1.30;;
20417;SDS011;10368;51.436;6.774;2023-06-26T15:00:03;1.33;;;1.23;;
20417;SDS011;10368;51.436;6.774;2023-06-26T15:02:31;2.33;;;1.10;;
20417;SDS011;10368;51.436;6.774;2023-06-26T15:04:58;2.25;;;1.45;;
20417;SDS011;10368;51.436;6.774;2023-06-26T15:07:25;3.28;;;1.40;;
20417;SDS011;10368;51.436;6.774;2023-06-26T15:09:52;2.08;;;1.45;;
20417;SDS011;10368;51.436;6.774;2023-06-26T15:12:19;3.17;;;1.52;;